sensor_id;sensor_type;location;lat;lon;timestamp;temperature;humidity
1181;DHT22;579;52.046;8.532;2023-02-15T00:06:49;-0.10;1.00
1181;DHT22;579;52.046;8.532;2023-02-15T00:09:15;3.70;1.00
1181;DHT22;579;52.046;8.532;2023-02-15T00:11:41;3.70;1.00
1181;DHT22;579;52.046;8.532;2023-02-15T00:14:12;3.60;1.00
1181;DHT22;579;52.046;8.532;2023-02-15T00:16:39;3.80;1.00
1181;DHT22;579;52.046;8.532;2023-02-15T00:19:07;3.50;1.00
1181;DHT22;579;52.046;8.532;2023-02-15T00:21:34;3.70;1.00
1181;DHT22;579;52.046;8.532;2023-02-15T00:29:02;3.60;1.00
1181;DHT22;579;52.046;8.532;2023-02-15T00:31:30;3.60;1.00
1181;DHT22;579;52.046;8.532;2023-02-15T00:34:01;3.60;1.00
1181;DHT22;579;52.046;8.532;2023-02-15T00:36:27;3.80;1.00
1181;DHT22;579;52.046;8.532;2023-02-15T00:38:54;4.00;1.00
1181;DHT22;579;52.046;8.532;2023-02-15T00:41:20;3.70;1.00
1181;DHT22;579;52.046;8.532;2023-02-15T00:43:46;4.00;1.00
1181;DHT22;579;52.046;8.532;2023-02-15T00:51:17;3.60;1.00
1181;DHT22;579;52.046;8.532;2023-02-15T00:53:44;3.60;1.00
1181;DHT22;579;52.046;8.532;2023-02-15T00:56:10;3.50;1.00
1181;DHT22;579;52.046;8.532;2023-02-15T00:58:37;3.50;1.00
1181;DHT22;579;52.046;8.532;2023-02-15T01:01:05;3.40;1.00
1181;DHT22;579;52.046;8.532;2023-02-15T01:03:32;3.60;1.00
1181;DHT22;579;52.046;8.532;2023-02-15T01:06:00;3.40;1.00
1181;DHT22;579;52.046;8.532;2023-02-15T01:11:05;3.30;1.00
1181;DHT22;579;52.046;8.532;2023-02-15T01:13:33;3.40;1.00
1181;DHT22;579;52.046;8.532;2023-02-15T01:16:00;3.40;1.00
1181;DHT22;579;52.046;8.532;2023-02-15T01:18:26;3.70;1.00
1181;DHT22;579;52.046;8.532;2023-02-15T01:20:53;3.60;1.00
1181;DHT22;579;52.046;8.532;2023-02-15T01:23:20;3.50;1.00
1181;DHT22;579;52.046;8.532;2023-02-15T01:25:46;3.30;1.00
1181;DHT22;579;52.046;8.532;2023-02-15T01:30:52;3.30;1.00
1181;DHT22;579;52.046;8.532;2023-02-15T01:33:18;3.20;1.00
1181;DHT22;579;52.046;8.532;2023-02-15T01:35:45;3.30;1.00
1181;DHT22;579;52.046;8.532;2023-02-15T01:38:11;3.50;1.00
1181;DHT22;579;52.046;8.532;2023-02-15T01:40:38;3.30;1.00
1181;DHT22;579;52.046;8.532;2023-02-15T01:43:09;3.30;1.00
1181;DHT22;579;52.046;8.532;2023-02-15T01:45:37;3.30;1.00
1181;DHT22;579;52.046;8.532;2023-02-15T01:53:05;3.50;1.00
1181;DHT22;579;52.046;8.532;2023-02-15T01:55:39;3.30;1.00
1181;DHT22;579;52.046;8.532;2023-02-15T01:58:08;3.10;1.00
1181;DHT22;579;52.046;8.532;2023-02-15T02:00:35;3.10;1.00
1181;DHT22;579;52.046;8.532;2023-02-15T02:03:02;3.20;1.00
1181;DHT22;579;52.046;8.532;2023-02-15T02:05:30;3.30;1.00
1181;DHT22;579;52.046;8.532;2023-02-15T02:07:58;3.20;1.00
1181;DHT22;579;52.046;8.532;2023-02-15T02:15:02;3.20;1.00
1181;DHT22;579;52.046;8.532;2023-02-15T02:17:37;3.20;1.00
1181;DHT22;579;52.046;8.532;2023-02-15T02:20:26;3.20;1.00
1181;DHT22;579;52.046;8.532;2023-02-15T02:29:40;3.20;1.00
1181;DHT22;579;52.046;8.532;2023-02-15T02:37:51;5.90;1.00
1181;DHT22;579;52.046;8.532;2023-02-15T02:40:28;2.90;1.00
1181;DHT22;579;52.046;8.532;2023-02-15T02:43:01;2.90;1.00
1181;DHT22;579;52.046;8.532;2023-02-15T02:45:36;2.80;1.00
1181;DHT22;579;52.046;8.532;2023-02-15T02:48:09;2.90;1.00
1181;DHT22;579;52.046;8.532;2023-02-15T02:50:39;2.80;1.00
1181;DHT22;579;52.046;8.532;2023-02-15T02:53:09;2.80;1.00
1181;DHT22;579;52.046;8.532;2023-02-15T02:58:15;2.90;1.00
1181;DHT22;579;52.046;8.532;2023-02-15T03:00:46;2.80;1.00
1181;DHT22;579;52.046;8.532;2023-02-15T03:03:19;2.70;1.00
1181;DHT22;579;52.046;8.532;2023-02-15T03:05:50;2.70;1.00
1181;DHT22;579;52.046;8.532;2023-02-15T03:08:20;2.70;1.00
1181;DHT22;579;52.046;8.532;2023-02-15T03:10:53;2.80;1.00
1181;DHT22;579;52.046;8.532;2023-02-15T03:18:33;2.70;1.00
1181;DHT22;579;52.046;8.532;2023-02-15T03:21:02;2.90;1.00
1181;DHT22;579;52.046;8.532;2023-02-15T03:23:30;3.00;1.00
1181;DHT22;579;52.046;8.532;2023-02-15T03:26:00;3.10;1.00
1181;DHT22;579;52.046;8.532;2023-02-15T03:28:31;2.90;1.00
1181;DHT22;579;52.046;8.532;2023-02-15T03:31:03;2.90;1.00
1181;DHT22;579;52.046;8.532;2023-02-15T03:33:31;3.20;1.00
1181;DHT22;579;52.046;8.532;2023-02-15T03:40:42;2.70;1.00
1181;DHT22;579;52.046;8.532;2023-02-15T03:43:32;2.60;1.00
1181;DHT22;579;52.046;8.532;2023-02-15T03:46:08;2.70;1.00
1181;DHT22;579;52.046;8.532;2023-02-15T03:48:39;2.80;1.00
1181;DHT22;579;52.046;8.532;2023-02-15T03:51:09;2.90;1.00
1181;DHT22;579;52.046;8.532;2023-02-15T03:53:57;2.80;1.00
1181;DHT22;579;52.046;8.532;2023-02-15T03:56:25;3.00;1.00
1181;DHT22;579;52.046;8.532;2023-02-15T04:04:07;3.00;1.00
1181;DHT22;579;52.046;8.532;2023-02-15T04:06:35;2.90;1.00
1181;DHT22;579;52.046;8.532;2023-02-15T04:09:02;3.00;1.00
1181;DHT22;579;52.046;8.532;2023-02-15T04:11:46;2.90;1.00
1181;DHT22;579;52.046;8.532;2023-02-15T04:14:12;2.90;1.00
1181;DHT22;579;52.046;8.532;2023-02-15T04:16:57;2.90;1.00
1181;DHT22;579;52.046;8.532;2023-02-15T04:19:24;3.10;1.00
1181;DHT22;579;52.046;8.532;2023-02-15T04:24:59;2.80;1.00
1181;DHT22;579;52.046;8.532;2023-02-15T04:27:38;2.80;1.00
1181;DHT22;579;52.046;8.532;2023-02-15T04:30:07;2.80;1.00
1181;DHT22;579;52.046;8.532;2023-02-15T04:32:35;2.70;1.00
1181;DHT22;579;52.046;8.532;2023-02-15T04:35:02;2.70;1.00
1181;DHT22;579;52.046;8.532;2023-02-15T04:37:30;2.80;1.00
1181;DHT22;579;52.046;8.532;2023-02-15T04:39:56;2.90;1.00
1181;DHT22;579;52.046;8.532;2023-02-15T04:47:29;2.50;1.00
1181;DHT22;579;52.046;8.532;2023-02-15T04:49:56;2.70;1.00
1181;DHT22;579;52.046;8.532;2023-02-15T04:52:22;2.60;1.00
1181;DHT22;579;52.046;8.532;2023-02-15T04:54:48;2.70;1.00
1181;DHT22;579;52.046;8.532;2023-02-15T04:57:14;2.80;1.00
1181;DHT22;579;52.046;8.532;2023-02-15T04:59:41;2.70;1.00
1181;DHT22;579;52.046;8.532;2023-02-15T05:02:07;2.90;1.00
1181;DHT22;579;52.046;8.532;2023-02-15T05:09:39;2.50;1.00
1181;DHT22;579;52.046;8.532;2023-02-15T05:12:06;2.50;1.00
1181;DHT22;579;52.046;8.532;2023-02-15T05:14:32;2.70;1.00
1181;DHT22;579;52.046;8.532;2023-02-15T05:16:58;2.60;1.00
1181;DHT22;579;52.046;8.532;2023-02-15T05:19:27;2.50;1.00
1181;DHT22;579;52.046;8.532;2023-02-15T05:21:53;2.70;1.00
1181;DHT22;579;52.046;8.532;2023-02-15T05:24:19;2.70;1.00
1181;DHT22;579;52.046;8.532;2023-02-15T05:32:28;2.20;1.00
1181;DHT22;579;52.046;8.532;2023-02-15T05:34:54;2.40;1.00
1181;DHT22;579;52.046;8.532;2023-02-15T05:37:20;2.70;1.00
1181;DHT22;579;52.046;8.532;2023-02-15T05:39:47;2.50;1.00
1181;DHT22;579;52.046;8.532;2023-02-15T05:42:13;2.40;1.00
1181;DHT22;579;52.046;8.532;2023-02-15T05:44:39;2.40;1.00
1181;DHT22;579;52.046;8.532;2023-02-15T05:47:06;2.20;1.00
1181;DHT22;579;52.046;8.532;2023-02-15T05:52:27;2.30;1.00
1181;DHT22;579;52.046;8.532;2023-02-15T05:54:53;2.30;1.00
1181;DHT22;579;52.046;8.532;2023-02-15T05:57:19;2.20;1.00
1181;DHT22;579;52.046;8.532;2023-02-15T05:59:46;2.10;1.00
1181;DHT22;579;52.046;8.532;2023-02-15T06:02:12;2.20;1.00
1181;DHT22;579;52.046;8.532;2023-02-15T06:04:38;2.20;1.00
1181;DHT22;579;52.046;8.532;2023-02-15T06:07:05;2.20;1.00
1181;DHT22;579;52.046;8.532;2023-02-15T06:14:36;2.60;1.00
1181;DHT22;579;52.046;8.532;2023-02-15T06:17:02;2.80;1.00
1181;DHT22;579;52.046;8.532;2023-02-15T06:19:28;2.70;1.00
1181;DHT22;579;52.046;8.532;2023-02-15T06:21:54;2.70;1.00
1181;DHT22;579;52.046;8.532;2023-02-15T06:24:20;2.90;1.00
1181;DHT22;579;52.046;8.532;2023-02-15T06:26:47;2.60;1.00
1181;DHT22;579;52.046;8.532;2023-02-15T06:29:13;2.60;1.00
1181;DHT22;579;52.046;8.532;2023-02-15T06:36:44;2.70;1.00
1181;DHT22;579;52.046;8.532;2023-02-15T06:39:10;2.80;1.00
1181;DHT22;579;52.046;8.532;2023-02-15T06:41:36;3.00;1.00
1181;DHT22;579;52.046;8.532;2023-02-15T06:44:03;3.20;1.00
1181;DHT22;579;52.046;8.532;2023-02-15T06:46:30;3.00;1.00
1181;DHT22;579;52.046;8.532;2023-02-15T06:48:56;3.00;1.00
1181;DHT22;579;52.046;8.532;2023-02-15T06:51:22;3.10;1.00
1181;DHT22;579;52.046;8.532;2023-02-15T06:58:54;3.20;1.00
1181;DHT22;579;52.046;8.532;2023-02-15T07:01:20;3.10;1.00
1181;DHT22;579;52.046;8.532;2023-02-15T07:03:46;2.90;1.00
1181;DHT22;579;52.046;8.532;2023-02-15T07:06:13;2.90;1.00
1181;DHT22;579;52.046;8.532;2023-02-15T07:08:39;3.10;1.00
1181;DHT22;579;52.046;8.532;2023-02-15T07:11:06;3.20;1.00
1181;DHT22;579;52.046;8.532;2023-02-15T07:13:51;3.30;1.00
1181;DHT22;579;52.046;8.532;2023-02-15T07:21:21;3.30;1.00
1181;DHT22;579;52.046;8.532;2023-02-15T07:23:47;3.20;1.00
1181;DHT22;579;52.046;8.532;2023-02-15T07:26:13;3.20;1.00
1181;DHT22;579;52.046;8.532;2023-02-15T07:28:40;3.20;1.00
1181;DHT22;579;52.046;8.532;2023-02-15T07:31:06;3.20;1.00
1181;DHT22;579;52.046;8.532;2023-02-15T07:33:33;3.20;1.00
1181;DHT22;579;52.046;8.532;2023-02-15T07:36:02;3.20;1.00
1181;DHT22;579;52.046;8.532;2023-02-15T07:43:34;3.40;1.00
1181;DHT22;579;52.046;8.532;2023-02-15T07:46:02;3.50;1.00
1181;DHT22;579;52.046;8.532;2023-02-15T07:48:30;3.40;1.00
1181;DHT22;579;52.046;8.532;2023-02-15T07:50:58;3.30;1.00
1181;DHT22;579;52.046;8.532;2023-02-15T07:53:25;3.30;1.00
1181;DHT22;579;52.046;8.532;2023-02-15T07:55:51;3.70;1.00
1181;DHT22;579;52.046;8.532;2023-02-15T07:58:18;3.50;1.00
1181;DHT22;579;52.046;8.532;2023-02-15T08:03:32;3.60;1.00
1181;DHT22;579;52.046;8.532;2023-02-15T08:06:00;3.50;1.00
1181;DHT22;579;52.046;8.532;2023-02-15T08:08:27;3.50;1.00
1181;DHT22;579;52.046;8.532;2023-02-15T08:11:01;3.60;1.00
1181;DHT22;579;52.046;8.532;2023-02-15T08:13:48;3.60;1.00
1181;DHT22;579;52.046;8.532;2023-02-15T08:16:23;3.50;1.00
1181;DHT22;579;52.046;8.532;2023-02-15T08:18:50;3.70;1.00
1181;DHT22;579;52.046;8.532;2023-02-15T08:26:21;3.90;1.00
1181;DHT22;579;52.046;8.532;2023-02-15T08:28:47;4.00;1.00
1181;DHT22;579;52.046;8.532;2023-02-15T08:31:15;4.10;1.00
1181;DHT22;579;52.046;8.532;2023-02-15T08:33:43;4.30;1.00
1181;DHT22;579;52.046;8.532;2023-02-15T08:36:13;4.60;1.00
1181;DHT22;579;52.046;8.532;2023-02-15T08:38:40;4.90;1.00
1181;DHT22;579;52.046;8.532;2023-02-15T08:41:12;5.10;1.00
1181;DHT22;579;52.046;8.532;2023-02-15T08:46:33;5.30;1.00
1181;DHT22;579;52.046;8.532;2023-02-15T08:49:01;5.20;1.00
1181;DHT22;579;52.046;8.532;2023-02-15T08:51:29;5.40;1.00
1181;DHT22;579;52.046;8.532;2023-02-15T08:53:57;5.50;1.00
1181;DHT22;579;52.046;8.532;2023-02-15T08:56:26;5.70;1.00
1181;DHT22;579;52.046;8.532;2023-02-15T08:58:54;6.00;1.00
1181;DHT22;579;52.046;8.532;2023-02-15T09:01:22;6.40;1.00
1181;DHT22;579;52.046;8.532;2023-02-15T09:08:32;7.10;1.00
1181;DHT22;579;52.046;8.532;2023-02-15T09:11:05;7.40;1.00
1181;DHT22;579;52.046;8.532;2023-02-15T09:13:33;7.70;1.00
1181;DHT22;579;52.046;8.532;2023-02-15T09:16:01;7.90;1.00
1181;DHT22;579;52.046;8.532;2023-02-15T09:18:29;8.20;1.00
1181;DHT22;579;52.046;8.532;2023-02-15T09:20:56;8.30;1.00
1181;DHT22;579;52.046;8.532;2023-02-15T09:23:22;8.50;1.00
1181;DHT22;579;52.046;8.532;2023-02-15T09:31:11;8.90;1.00
1181;DHT22;579;52.046;8.532;2023-02-15T09:33:39;9.50;1.00
1181;DHT22;579;52.046;8.532;2023-02-15T09:36:14;9.50;1.00
1181;DHT22;579;52.046;8.532;2023-02-15T09:38:41;9.80;1.00
1181;DHT22;579;52.046;8.532;2023-02-15T09:41:19;9.70;1.00
1181;DHT22;579;52.046;8.532;2023-02-15T09:43:59;9.70;1.00
1181;DHT22;579;52.046;8.532;2023-02-15T09:49:39;9.70;1.00
1181;DHT22;579;52.046;8.532;2023-02-15T09:52:21;9.60;1.00
1181;DHT22;579;52.046;8.532;2023-02-15T09:55:12;9.70;1.00
1181;DHT22;579;52.046;8.532;2023-02-15T09:57:53;9.70;1.00
1181;DHT22;579;52.046;8.532;2023-02-15T10:00:30;9.60;1.00
1181;DHT22;579;52.046;8.532;2023-02-15T10:03:13;9.60;1.00
1181;DHT22;579;52.046;8.532;2023-02-15T10:10:12;9.40;1.00
1181;DHT22;579;52.046;8.532;2023-02-15T10:12:57;9.80;1.00
1181;DHT22;579;52.046;8.532;2023-02-15T10:15:43;10.40;1.00
1181;DHT22;579;52.046;8.532;2023-02-15T10:18:39;10.40;1.00
1181;DHT22;579;52.046;8.532;2023-02-15T10:21:21;10.50;1.00
1181;DHT22;579;52.046;8.532;2023-02-15T10:24:09;10.50;1.00
1181;DHT22;579;52.046;8.532;2023-02-15T10:29:28;10.20;1.00
1181;DHT22;579;52.046;8.532;2023-02-15T10:32:06;10.00;1.00
1181;DHT22;579;52.046;8.532;2023-02-15T10:34:50;10.10;1.00
1181;DHT22;579;52.046;8.532;2023-02-15T10:37:35;9.90;1.00
1181;DHT22;579;52.046;8.532;2023-02-15T10:40:25;10.00;1.00
1181;DHT22;579;52.046;8.532;2023-02-15T10:43:11;10.00;1.00
1181;DHT22;579;52.046;8.532;2023-02-15T10:49:49;10.00;1.00
1181;DHT22;579;52.046;8.532;2023-02-15T10:52:32;9.90;1.00
1181;DHT22;579;52.046;8.532;2023-02-15T10:55:11;10.00;1.00
1181;DHT22;579;52.046;8.532;2023-02-15T10:57:51;10.00;1.00
1181;DHT22;579;52.046;8.532;2023-02-15T11:00:25;10.00;1.00
1181;DHT22;579;52.046;8.532;2023-02-15T11:03:14;10.00;1.00
1181;DHT22;579;52.046;8.532;2023-02-15T11:06:03;10.20;1.00
1181;DHT22;579;52.046;8.532;2023-02-15T11:08:34;10.10;1.00
1181;DHT22;579;52.046;8.532;2023-02-15T11:11:06;10.20;1.00
1181;DHT22;579;52.046;8.532;2023-02-15T11:13:38;10.30;1.00
1181;DHT22;579;52.046;8.532;2023-02-15T11:16:10;10.30;1.00
1181;DHT22;579;52.046;8.532;2023-02-15T11:18:42;10.40;1.00
1181;DHT22;579;52.046;8.532;2023-02-15T11:21:17;10.60;1.00
1181;DHT22;579;52.046;8.532;2023-02-15T11:24:16;11.00;1.00
1181;DHT22;579;52.046;8.532;2023-02-15T11:26:49;11.50;1.00
1181;DHT22;579;52.046;8.532;2023-02-15T11:29:23;11.80;1.00
1181;DHT22;579;52.046;8.532;2023-02-15T11:31:54;11.90;1.00
1181;DHT22;579;52.046;8.532;2023-02-15T11:34:27;11.70;1.00
1181;DHT22;579;52.046;8.532;2023-02-15T11:37:00;11.70;1.00
1181;DHT22;579;52.046;8.532;2023-02-15T11:43:37;11.50;1.00
1181;DHT22;579;52.046;8.532;2023-02-15T11:46:08;11.70;1.00
1181;DHT22;579;52.046;8.532;2023-02-15T11:48:38;11.80;1.00
1181;DHT22;579;52.046;8.532;2023-02-15T11:51:05;11.90;1.00
1181;DHT22;579;52.046;8.532;2023-02-15T11:53:33;12.10;1.00
1181;DHT22;579;52.046;8.532;2023-02-15T11:56:03;12.00;1.00
1181;DHT22;579;52.046;8.532;2023-02-15T12:01:21;12.40;1.00
1181;DHT22;579;52.046;8.532;2023-02-15T12:03:53;12.50;1.00
1181;DHT22;579;52.046;8.532;2023-02-15T12:06:25;12.60;1.00
1181;DHT22;579;52.046;8.532;2023-02-15T12:09:03;12.80;1.00
1181;DHT22;579;52.046;8.532;2023-02-15T12:11:35;12.80;1.00
1181;DHT22;579;52.046;8.532;2023-02-15T12:14:04;12.70;1.00
1181;DHT22;579;52.046;8.532;2023-02-15T12:19:24;13.40;1.00
1181;DHT22;579;52.046;8.532;2023-02-15T12:21:56;13.20;1.00
1181;DHT22;579;52.046;8.532;2023-02-15T12:24:27;13.40;1.00
1181;DHT22;579;52.046;8.532;2023-02-15T12:27:01;13.50;1.00
1181;DHT22;579;52.046;8.532;2023-02-15T12:29:32;13.60;1.00
1181;DHT22;579;52.046;8.532;2023-02-15T12:32:01;13.90;1.00
1181;DHT22;579;52.046;8.532;2023-02-15T12:34:30;13.90;1.00
1181;DHT22;579;52.046;8.532;2023-02-15T12:39:37;14.00;1.00
1181;DHT22;579;52.046;8.532;2023-02-15T12:42:08;14.20;1.00
1181;DHT22;579;52.046;8.532;2023-02-15T12:44:53;14.20;1.00
1181;DHT22;579;52.046;8.532;2023-02-15T12:47:24;14.00;1.00
1181;DHT22;579;52.046;8.532;2023-02-15T12:50:13;14.00;1.00
1181;DHT22;579;52.046;8.532;2023-02-15T12:52:45;14.10;1.00
1181;DHT22;579;52.046;8.532;2023-02-15T12:58:15;14.50;1.00
1181;DHT22;579;52.046;8.532;2023-02-15T13:00:43;14.60;1.00
1181;DHT22;579;52.046;8.532;2023-02-15T13:03:17;14.90;1.00
1181;DHT22;579;52.046;8.532;2023-02-15T13:05:47;15.10;1.00
1181;DHT22;579;52.046;8.532;2023-02-15T13:08:18;15.20;1.00
1181;DHT22;579;52.046;8.532;2023-02-15T13:10:54;15.50;1.00
1181;DHT22;579;52.046;8.532;2023-02-15T13:16:04;15.60;1.00
1181;DHT22;579;52.046;8.532;2023-02-15T13:18:35;15.80;1.00
1181;DHT22;579;52.046;8.532;2023-02-15T13:21:10;16.10;1.00
1181;DHT22;579;52.046;8.532;2023-02-15T13:23:42;16.70;1.00
1181;DHT22;579;52.046;8.532;2023-02-15T13:26:15;17.00;1.00
1181;DHT22;579;52.046;8.532;2023-02-15T13:28:47;17.50;1.00
1181;DHT22;579;52.046;8.532;2023-02-15T13:34:02;18.20;1.00
1181;DHT22;579;52.046;8.532;2023-02-15T13:36:38;18.10;1.00
1181;DHT22;579;52.046;8.532;2023-02-15T13:39:15;17.90;1.00
1181;DHT22;579;52.046;8.532;2023-02-15T13:41:53;17.70;1.00
1181;DHT22;579;52.046;8.532;2023-02-15T13:44:37;17.70;1.00
1181;DHT22;579;52.046;8.532;2023-02-15T13:47:26;17.90;1.00
1181;DHT22;579;52.046;8.532;2023-02-15T13:55:25;17.70;1.00
1181;DHT22;579;52.046;8.532;2023-02-15T13:58:14;17.70;1.00
1181;DHT22;579;52.046;8.532;2023-02-15T14:00:54;17.70;1.00
1181;DHT22;579;52.046;8.532;2023-02-15T14:03:42;17.50;1.00
1181;DHT22;579;52.046;8.532;2023-02-15T14:06:48;17.40;1.00
1181;DHT22;579;52.046;8.532;2023-02-15T14:15:50;17.30;1.00
1181;DHT22;579;52.046;8.532;2023-02-15T14:18:24;17.70;1.00
1181;DHT22;579;52.046;8.532;2023-02-15T14:21:01;18.20;1.00
1181;DHT22;579;52.046;8.532;2023-02-15T14:23:42;18.30;1.00
1181;DHT22;579;52.046;8.532;2023-02-15T14:26:20;18.70;1.00
1181;DHT22;579;52.046;8.532;2023-02-15T14:28:56;19.10;1.00
1181;DHT22;579;52.046;8.532;2023-02-15T14:34:19;19.70;1.00
1181;DHT22;579;52.046;8.532;2023-02-15T14:36:49;19.80;1.00
1181;DHT22;579;52.046;8.532;2023-02-15T14:39:26;20.20;1.00
1181;DHT22;579;52.046;8.532;2023-02-15T14:42:20;20.30;1.00
1181;DHT22;579;52.046;8.532;2023-02-15T14:44:54;20.20;1.00
1181;DHT22;579;52.046;8.532;2023-02-15T14:47:28;20.60;1.00
1181;DHT22;579;52.046;8.532;2023-02-15T14:54:58;20.20;1.00
1181;DHT22;579;52.046;8.532;2023-02-15T14:57:44;20.20;1.00
1181;DHT22;579;52.046;8.532;2023-02-15T15:00:33;20.10;1.00
1181;DHT22;579;52.046;8.532;2023-02-15T15:03:21;20.20;1.00
1181;DHT22;579;52.046;8.532;2023-02-15T15:05:52;20.10;1.00
1181;DHT22;579;52.046;8.532;2023-02-15T15:08:28;19.60;1.00
1181;DHT22;579;52.046;8.532;2023-02-15T15:15:56;19.50;1.00
1181;DHT22;579;52.046;8.532;2023-02-15T15:18:44;18.90;1.00
1181;DHT22;579;52.046;8.532;2023-02-15T15:24:49;18.90;1.00
1181;DHT22;579;52.046;8.532;2023-02-15T15:27:42;19.40;1.00
1181;DHT22;579;52.046;8.532;2023-02-15T15:37:04;19.30;1.00
1181;DHT22;579;52.046;8.532;2023-02-15T15:40:12;19.00;1.00
1181;DHT22;579;52.046;8.532;2023-02-15T15:52:52;16.80;1.00
1181;DHT22;579;52.046;8.532;2023-02-15T15:55:23;16.50;1.00
1181;DHT22;579;52.046;8.532;2023-02-15T15:57:55;16.30;1.00
1181;DHT22;579;52.046;8.532;2023-02-15T16:00:36;16.30;1.00
1181;DHT22;579;52.046;8.532;2023-02-15T16:03:04;15.60;1.00
1181;DHT22;579;52.046;8.532;2023-02-15T16:05:37;15.60;1.00
1181;DHT22;579;52.046;8.532;2023-02-15T16:11:13;15.00;1.00
1181;DHT22;579;52.046;8.532;2023-02-15T16:13:42;14.80;1.00
1181;DHT22;579;52.046;8.532;2023-02-15T16:16:12;14.70;1.00
1181;DHT22;579;52.046;8.532;2023-02-15T16:18:41;14.80;1.00
1181;DHT22;579;52.046;8.532;2023-02-15T16:21:18;14.40;1.00
1181;DHT22;579;52.046;8.532;2023-02-15T16:24:01;14.20;1.00
1181;DHT22;579;52.046;8.532;2023-02-15T16:27:04;13.90;1.00
1181;DHT22;579;52.046;8.532;2023-02-15T16:34:51;13.30;1.00
1181;DHT22;579;52.046;8.532;2023-02-15T16:37:22;13.00;1.00
1181;DHT22;579;52.046;8.532;2023-02-15T16:39:52;12.90;1.00
1181;DHT22;579;52.046;8.532;2023-02-15T16:42:18;12.70;1.00
1181;DHT22;579;52.046;8.532;2023-02-15T16:44:47;12.50;1.00
1181;DHT22;579;52.046;8.532;2023-02-15T16:47:17;12.40;1.00
1181;DHT22;579;52.046;8.532;2023-02-15T16:52:37;12.10;1.00
1181;DHT22;579;52.046;8.532;2023-02-15T16:55:05;12.00;1.00
1181;DHT22;579;52.046;8.532;2023-02-15T16:57:34;12.00;1.00
1181;DHT22;579;52.046;8.532;2023-02-15T17:00:04;12.00;1.00
1181;DHT22;579;52.046;8.532;2023-02-15T17:02:34;12.00;1.00
1181;DHT22;579;52.046;8.532;2023-02-15T17:05:07;11.90;1.00
1181;DHT22;579;52.046;8.532;2023-02-15T17:07:48;11.80;1.00
1181;DHT22;579;52.046;8.532;2023-02-15T17:15:33;11.50;1.00
1181;DHT22;579;52.046;8.532;2023-02-15T17:18:03;11.60;1.00
1181;DHT22;579;52.046;8.532;2023-02-15T17:20:32;11.30;1.00
1181;DHT22;579;52.046;8.532;2023-02-15T17:22:59;11.30;1.00
1181;DHT22;579;52.046;8.532;2023-02-15T17:25:32;11.10;1.00
1181;DHT22;579;52.046;8.532;2023-02-15T17:28:01;11.10;1.00
1181;DHT22;579;52.046;8.532;2023-02-15T17:30:30;10.80;1.00
1181;DHT22;579;52.046;8.532;2023-02-15T17:38:06;10.40;1.00
1181;DHT22;579;52.046;8.532;2023-02-15T17:40:41;10.40;1.00
1181;DHT22;579;52.046;8.532;2023-02-15T17:43:07;10.50;1.00
1181;DHT22;579;52.046;8.532;2023-02-15T17:45:35;10.30;1.00
1181;DHT22;579;52.046;8.532;2023-02-15T17:48:04;10.50;1.00
1181;DHT22;579;52.046;8.532;2023-02-15T17:50:31;10.40;1.00
1181;DHT22;579;52.046;8.532;2023-02-15T17:52:58;10.40;1.00
1181;DHT22;579;52.046;8.532;2023-02-15T18:00:35;10.40;1.00
1181;DHT22;579;52.046;8.532;2023-02-15T18:03:21;10.30;1.00
1181;DHT22;579;52.046;8.532;2023-02-15T18:06:06;10.30;1.00
1181;DHT22;579;52.046;8.532;2023-02-15T18:08:50;10.20;1.00
1181;DHT22;579;52.046;8.532;2023-02-15T18:11:37;10.00;1.00
1181;DHT22;579;52.046;8.532;2023-02-15T18:14:05;9.90;1.00
1181;DHT22;579;52.046;8.532;2023-02-15T18:19:14;10.00;1.00
1181;DHT22;579;52.046;8.532;2023-02-15T18:21:41;9.90;1.00
1181;DHT22;579;52.046;8.532;2023-02-15T18:24:16;9.80;1.00
1181;DHT22;579;52.046;8.532;2023-02-15T18:26:45;9.80;1.00
1181;DHT22;579;52.046;8.532;2023-02-15T18:29:11;9.80;1.00
1181;DHT22;579;52.046;8.532;2023-02-15T18:31:40;9.80;1.00
1181;DHT22;579;52.046;8.532;2023-02-15T18:34:20;9.70;1.00
1181;DHT22;579;52.046;8.532;2023-02-15T18:41:40;9.40;1.00
1181;DHT22;579;52.046;8.532;2023-02-15T18:44:09;9.30;1.00
1181;DHT22;579;52.046;8.532;2023-02-15T18:46:36;9.40;1.00
1181;DHT22;579;52.046;8.532;2023-02-15T18:49:03;9.30;1.00
1181;DHT22;579;52.046;8.532;2023-02-15T18:51:30;9.40;1.00
1181;DHT22;579;52.046;8.532;2023-02-15T18:54:00;9.30;1.00
1181;DHT22;579;52.046;8.532;2023-02-15T18:56:29;9.40;1.00
1181;DHT22;579;52.046;8.532;2023-02-15T19:03:59;8.80;1.00
1181;DHT22;579;52.046;8.532;2023-02-15T19:06:28;8.90;1.00
1181;DHT22;579;52.046;8.532;2023-02-15T19:08:55;8.80;1.00
1181;DHT22;579;52.046;8.532;2023-02-15T19:11:22;8.90;1.00
1181;DHT22;579;52.046;8.532;2023-02-15T19:13:50;8.80;1.00
1181;DHT22;579;52.046;8.532;2023-02-15T19:16:29;8.80;1.00
1181;DHT22;579;52.046;8.532;2023-02-15T19:18:56;8.80;1.00
1181;DHT22;579;52.046;8.532;2023-02-15T19:24:36;8.80;1.00
1181;DHT22;579;52.046;8.532;2023-02-15T19:27:05;8.70;1.00
1181;DHT22;579;52.046;8.532;2023-02-15T19:29:32;8.40;1.00
1181;DHT22;579;52.046;8.532;2023-02-15T19:31:59;8.40;1.00
1181;DHT22;579;52.046;8.532;2023-02-15T19:34:26;8.70;1.00
1181;DHT22;579;52.046;8.532;2023-02-15T19:36:53;8.70;1.00
1181;DHT22;579;52.046;8.532;2023-02-15T19:39:26;8.80;1.00
1181;DHT22;579;52.046;8.532;2023-02-15T19:46:37;8.00;1.00
1181;DHT22;579;52.046;8.532;2023-02-15T19:49:04;8.10;1.00
1181;DHT22;579;52.046;8.532;2023-02-15T19:51:30;8.00;1.00
1181;DHT22;579;52.046;8.532;2023-02-15T19:53:59;7.90;1.00
1181;DHT22;579;52.046;8.532;2023-02-15T19:56:26;7.80;1.00
1181;DHT22;579;52.046;8.532;2023-02-15T19:58:53;7.90;1.00
1181;DHT22;579;52.046;8.532;2023-02-15T20:01:22;7.90;1.00
1181;DHT22;579;52.046;8.532;2023-02-15T20:04:03;8.90;1.00
1181;DHT22;579;52.046;8.532;2023-02-15T20:06:30;7.90;1.00
1181;DHT22;579;52.046;8.532;2023-02-15T20:08:56;7.90;1.00
1181;DHT22;579;52.046;8.532;2023-02-15T20:11:23;7.70;1.00
1181;DHT22;579;52.046;8.532;2023-02-15T20:13:49;7.70;1.00
1181;DHT22;579;52.046;8.532;2023-02-15T20:16:16;7.90;1.00
1181;DHT22;579;52.046;8.532;2023-02-15T20:18:43;7.70;1.00
1181;DHT22;579;52.046;8.532;2023-02-15T20:23:51;7.50;1.00
1181;DHT22;579;52.046;8.532;2023-02-15T20:26:18;7.30;1.00
1181;DHT22;579;52.046;8.532;2023-02-15T20:28:46;7.30;1.00
1181;DHT22;579;52.046;8.532;2023-02-15T20:31:14;7.20;1.00
1181;DHT22;579;52.046;8.532;2023-02-15T20:33:41;7.10;1.00
1181;DHT22;579;52.046;8.532;2023-02-15T20:36:12;7.20;1.00
1181;DHT22;579;52.046;8.532;2023-02-15T20:38:39;7.30;1.00
1181;DHT22;579;52.046;8.532;2023-02-15T20:41:35;7.30;1.00
1181;DHT22;579;52.046;8.532;2023-02-15T20:44:18;7.10;1.00
1181;DHT22;579;52.046;8.532;2023-02-15T20:46:46;7.10;1.00
1181;DHT22;579;52.046;8.532;2023-02-15T20:49:13;6.90;1.00
1181;DHT22;579;52.046;8.532;2023-02-15T20:51:39;7.00;1.00
1181;DHT22;579;52.046;8.532;2023-02-15T20:54:18;7.00;1.00
1181;DHT22;579;52.046;8.532;2023-02-15T21:02:03;7.10;1.00
1181;DHT22;579;52.046;8.532;2023-02-15T21:04:40;7.20;1.00
1181;DHT22;579;52.046;8.532;2023-02-15T21:07:11;7.00;1.00
1181;DHT22;579;52.046;8.532;2023-02-15T21:09:39;6.90;1.00
1181;DHT22;579;52.046;8.532;2023-02-15T21:12:08;6.90;1.00
1181;DHT22;579;52.046;8.532;2023-02-15T21:14:37;6.90;1.00
1181;DHT22;579;52.046;8.532;2023-02-15T21:17:05;6.80;1.00
1181;DHT22;579;52.046;8.532;2023-02-15T21:22:28;4.20;1.00
1181;DHT22;579;52.046;8.532;2023-02-15T21:24:54;6.90;1.00
1181;DHT22;579;52.046;8.532;2023-02-15T21:27:21;7.00;1.00
1181;DHT22;579;52.046;8.532;2023-02-15T21:29:49;6.80;1.00
1181;DHT22;579;52.046;8.532;2023-02-15T21:32:15;6.70;1.00
1181;DHT22;579;52.046;8.532;2023-02-15T21:34:43;6.50;1.00
1181;DHT22;579;52.046;8.532;2023-02-15T21:40:03;6.60;1.00
1181;DHT22;579;52.046;8.532;2023-02-15T21:42:31;6.50;1.00
1181;DHT22;579;52.046;8.532;2023-02-15T21:45:17;6.30;1.00